Flight Track Log - Related Links

Times and Time Zones

All times are in EDT time to prevent confusion due to time zone crossing. See the AAL1326 flight status page for this flight to view local times or setup timezone preferences in your user account.

Time Position Orientation Groundspeed Altitude Reporting Facility
EDT Latitude Longitude Course Direction KTS MPH feet Rate Location/Type
Wed 06:59:57 PM 41.9410 -87.9090 182° South 155 178 1,700  Level FlightAware ADS-B
Wed 07:00:27 PM 41.9190 -87.9080 178° South 181 208 2,400 1,309 Climbing FlightAware ADS-B
Wed 07:00:52 PM 41.8960 -87.9060 176° South 213 245 2,900 1,745 Climbing FlightAware ADS-B
Wed 07:01:22 PM 41.8620 -87.9040 177° South 241 277 4,000 2,182 Climbing FlightAware ADS-B
Wed 07:01:47 PM 41.8350 -87.9020 177° South 251 289 4,900 2,618 Climbing FlightAware ADS-B
Wed 07:02:17 PM 41.7980 -87.8990 177° South 257 296 6,400 2,836 Climbing FlightAware ADS-B
Wed 07:02:42 PM 41.7710 -87.8970 177° South 262 302 7,500 2,836 Climbing FlightAware ADS-B
Wed 07:03:12 PM 41.7320 -87.8910 173° South 268 308 9,000 2,933 Climbing FlightAware ADS-B
Wed 07:03:27 PM 41.7150 -87.8840 163° South 273 314 9,700 2,727 Climbing FlightAware ADS-B
Wed 07:04:07 PM 41.6670 -87.8580 158° South 279 321 11,500 2,329 Climbing FlightAware ADS-B
Wed 07:04:52 PM 41.6110 -87.8280 158° South 311 358 13,000 1,906 Climbing FlightAware ADS-B
Wed 07:05:32 PM 41.5550 -87.7980 158° South 342 394 14,200 2,100 Climbing FlightAware ADS-B
Wed 07:06:12 PM 41.4930 -87.7650 158° South 363 418 15,800 2,259 Climbing FlightAware ADS-B
Wed 07:06:57 PM 41.4180 -87.7280 160° South 383 441 17,400 2,188 Climbing FlightAware ADS-B
Wed 07:07:37 PM 41.3520 -87.7240 177° South 395 455 18,900 2,400 Climbing FlightAware ADS-B
Wed 07:08:22 PM 41.2650 -87.7240 180° South 404 465 20,800 2,259 Climbing FlightAware ADS-B
Wed 07:09:02 PM 41.1900 -87.7090 171° South 418 481 22,100 1,800 Climbing FlightAware ADS-B
Wed 07:09:42 PM 41.1150 -87.6780 163° South 431 496 23,200 1,765 Climbing FlightAware ADS-B
Wed 07:10:27 PM 41.0370 -87.6430 161° South 436 502 24,600 1,200 Climbing FlightAware ADS-B
Wed 07:11:12 PM 40.9390 -87.6010 162° South 437 503 25,000 988 Climbing FlightAware ADS-B
Wed 07:11:52 PM 40.8680 -87.5700 162° South 437 503 26,000 1,412 Climbing FlightAware ADS-B
Wed 07:12:37 PM 40.7820 -87.5330 162° South 447 514 27,000 706 Climbing FlightAware ADS-B
Wed 07:13:17 PM 40.7040 -87.4990 162° South 449 517 27,000 400 Level FlightAware ADS-B
Wed 07:13:52 PM 40.6330 -87.4690 162° South 452 520 27,500 706 Climbing FlightAware ADS-B
Wed 07:14:42 PM 40.5280 -87.4240 162° South 457 526 28,000 450 Climbing FlightAware ADS-B
Wed 07:15:12 PM 40.4710 -87.4000 162° South 457 526 28,100 771 Climbing FlightAware ADS-B
Wed 07:15:52 PM 40.3880 -87.3640 162° South 460 529 28,900 771 Climbing FlightAware ADS-B
Wed 07:16:22 PM 40.3330 -87.3410 162° South 468 539 29,000 375 Climbing FlightAware ADS-B
Wed 07:17:12 PM 40.2220 -87.2940 162° South 471 542 29,400 600 Climbing FlightAware ADS-B
Wed 07:17:52 PM 40.1380 -87.2580 162° South 466 536 29,900 600 Climbing FlightAware ADS-B
Wed 07:18:32 PM 40.0630 -87.2260 162° South 465 535 30,200 733 Climbing FlightAware ADS-B
Wed 07:19:22 PM 39.9580 -87.1820 162° South 459 528 31,000 565 Climbing FlightAware ADS-B
Wed 07:19:57 PM 39.8910 -87.1540 162° South 458 527 31,000 975 Level FlightAware ADS-B
Wed 07:20:42 PM 39.7980 -87.1150 162° South 447 514 32,300 1,467 Climbing FlightAware ADS-B
Wed 07:21:27 PM 39.7140 -87.0800 162° South 450 518 33,200 1,200 Climbing FlightAware ADS-B
Wed 07:22:07 PM 39.6310 -87.0460 162° South 451 519 34,000 1,271 Climbing FlightAware ADS-B
Wed 07:22:52 PM 39.5380 -87.0070 162° South 447 514 35,000 706 Climbing FlightAware ADS-B
Wed 07:23:32 PM 39.4600 -86.9750 162° South 444 511 35,000  Level FlightAware ADS-B
Wed 07:24:12 PM 39.3810 -86.9420 162° South 444 511 35,000 494 Level FlightAware ADS-B
Wed 07:24:57 PM 39.2910 -86.9050 162° South 441 507 35,700 1,059 Climbing FlightAware ADS-B
Wed 07:25:37 PM 39.2180 -86.8750 162° South 436 502 36,500 1,040 Climbing FlightAware ADS-B
Wed 07:26:12 PM 39.1490 -86.8410 159° South 440 506 37,000 375 Climbing FlightAware ADS-B
Wed 07:26:57 PM 39.0690 -86.7870 152° Southeast 441 507 37,000  Level FlightAware ADS-B
Wed 07:27:37 PM 38.9970 -86.7380 152° Southeast 442 509 37,000  Level FlightAware ADS-B
Wed 07:28:22 PM 38.9150 -86.6820 152° Southeast 441 507 37,000  Level FlightAware ADS-B
Wed 07:29:02 PM 38.8420 -86.6330 152° Southeast 441 507 37,000  Level FlightAware ADS-B
Wed 07:29:42 PM 38.7690 -86.5840 152° Southeast 441 507 37,000  Level FlightAware ADS-B
Wed 07:30:27 PM 38.6900 -86.5310 152° Southeast 440 506 37,000  Level FlightAware ADS-B
Wed 07:31:07 PM 38.6160 -86.4820 153° Southeast 438 504 37,000  Level FlightAware ADS-B
Wed 07:31:52 PM 38.5370 -86.4280 152° Southeast 435 501 37,000  Level FlightAware ADS-B
Wed 07:32:32 PM 38.4670 -86.3820 153° Southeast 433 498 37,000  Level FlightAware ADS-B
Wed 07:33:12 PM 38.3940 -86.3340 153° Southeast 432 497 37,000  Level FlightAware ADS-B
Wed 07:33:57 PM 38.3140 -86.2810 153° Southeast 430 495 37,000  Level FlightAware ADS-B
Wed 07:34:37 PM 38.2450 -86.2340 152° Southeast 429 494 37,000  Level FlightAware ADS-B
Wed 07:35:22 PM 38.1670 -86.1830 153° Southeast 428 493 37,000  Level FlightAware ADS-B
Wed 07:36:02 PM 38.0960 -86.1370 153° Southeast 429 494 37,000  Level FlightAware ADS-B
Wed 07:36:42 PM 38.0270 -86.0910 152° Southeast 429 494 37,000  Level FlightAware ADS-B
Wed 07:37:27 PM 37.9450 -86.0370 153° Southeast 428 493 37,000  Level FlightAware ADS-B
Wed 07:38:07 PM 37.8770 -85.9930 153° Southeast 428 493 37,000  Level FlightAware ADS-B
Wed 07:38:52 PM 37.7970 -85.9410 153° Southeast 428 493 37,000  Level FlightAware ADS-B
Wed 07:39:27 PM 37.7330 -85.8990 153° Southeast 428 493 37,000  Level FlightAware ADS-B
Wed 07:40:12 PM 37.6570 -85.8500 153° Southeast 429 494 37,000  Level FlightAware ADS-B
Wed 07:40:58 PM 37.5699 -85.7928 152° Southeast 430 495 37,000  Level FlightAware ADS-B
Wed 07:41:44 PM 37.4897 -85.7409 153° Southeast 431 496 37,000  Level FlightAware ADS-B
Wed 07:42:21 PM 37.4235 -85.6981 153° Southeast 431 496 37,000  Level FlightAware ADS-B
Wed 07:42:52 PM 37.3685 -85.6627 153° Southeast 431 496 37,000  Level FlightAware ADS-B
Wed 07:43:57 PM 37.2529 -85.5885 153° Southeast 430 495 37,000  Level FlightAware ADS-B
Wed 07:44:28 PM 37.1984 -85.5535 153° Southeast 430 495 37,000  Level FlightAware ADS-B
Wed 07:44:59 PM 37.1439 -85.5187 153° Southeast 429 494 37,000  Level FlightAware ADS-B
Wed 07:45:33 PM 37.0842 -85.4804 153° Southeast 429 494 37,000  Level FlightAware ADS-B
Wed 07:46:05 PM 37.0270 -85.4440 153° Southeast 428 493 37,000  Level FlightAware ADS-B
Wed 07:46:36 PM 36.9726 -85.4094 153° Southeast 428 493 37,000  Level FlightAware ADS-B
Wed 07:47:08 PM 36.9164 -85.3736 153° Southeast 429 494 37,000  Level FlightAware ADS-B
Wed 07:47:49 PM 36.8443 -85.3279 153° Southeast 429 494 37,000  Level FlightAware ADS-B
Wed 07:48:35 PM 36.7626 -85.2761 153° Southeast 428 493 37,000  Level FlightAware ADS-B
Wed 07:49:05 PM 36.7088 -85.2422 153° Southeast 428 493 37,000  Level FlightAware ADS-B
Wed 07:49:40 PM 36.6480 -85.2039 153° Southeast 427 491 37,000  Level FlightAware ADS-B
Wed 07:50:09 PM 36.5945 -85.1784 159° South 423 487 37,000  Level FlightAware ADS-B
Wed 07:50:39 PM 36.5373 -85.1625 167° South 421 484 37,000  Level FlightAware ADS-B
Wed 07:51:13 PM 36.4725 -85.1456 168° South 420 483 37,000 92 Level FlightAware ADS-B
Wed 07:51:44 PM 36.4145 -85.1305 168° South 424 488 37,100 492 Climbing FlightAware ADS-B
Wed 07:52:14 PM 36.3562 -85.1154 168° South 425 489 37,500 800 Climbing FlightAware ADS-B
Wed 07:52:44 PM 36.2979 -85.1004 168° South 425 489 37,900 806 Climbing FlightAware ADS-B
Wed 07:53:21 PM 36.2264 -85.0821 168° South 426 490 38,400 806 Climbing FlightAware ADS-B
Wed 07:53:51 PM 36.1685 -85.0672 168° South 424 488 38,800 600 Climbing FlightAware ADS-B
Wed 07:54:21 PM 36.1109 -85.0523 168° South 423 487 39,000 190 Climbing FlightAware ADS-B
Wed 07:54:54 PM 36.0493 -85.0366 168° South 423 487 39,000  Level FlightAware ADS-B
Wed 07:55:24 PM 35.9909 -85.0217 168° South 419 482 39,000  Level FlightAware ADS-B
Wed 07:55:55 PM 35.9339 -85.0071 168° South 416 479 39,000  Level FlightAware ADS-B
Wed 07:56:25 PM 35.8776 -84.9928 168° South 411 473 39,000  Level FlightAware ADS-B
Wed 07:57:09 PM 35.7961 -84.9721 168° South 409 471 39,000  Level FlightAware ADS-B
Wed 07:57:40 PM 35.7390 -84.9575 168° South 405 466 39,000  Level FlightAware ADS-B
Wed 07:58:10 PM 35.6834 -84.9434 168° South 403 464 39,000  Level FlightAware ADS-B
Wed 07:58:40 PM 35.6287 -84.9295 168° South 403 464 39,000  Level FlightAware ADS-B
Wed 07:59:12 PM 35.5711 -84.9149 168° South 402 463 39,000  Level FlightAware ADS-B
Wed 07:59:42 PM 35.5153 -84.9008 168° South 400 460 39,000  Level FlightAware ADS-B
Wed 08:00:13 PM 35.4604 -84.8870 168° South 399 459 39,000  Level FlightAware ADS-B
Wed 08:00:43 PM 35.4051 -84.8730 168° South 397 457 39,000  Level FlightAware ADS-B
Wed 08:01:14 PM 35.3500 -84.8592 168° South 396 456 39,000  Level FlightAware ADS-B
Wed 08:01:45 PM 35.2947 -84.8452 168° South 394 453 39,000  Level FlightAware ADS-B
Wed 08:02:15 PM 35.2407 -84.8316 168° South 392 451 39,000  Level FlightAware ADS-B
Wed 08:02:46 PM 35.1856 -84.8178 168° South 390 449 39,000  Level FlightAware ADS-B
Wed 08:03:17 PM 35.1313 -84.8043 169° South 389 448 39,000  Level FlightAware ADS-B
Wed 08:03:47 PM 35.0782 -84.7910 168° South 388 447 39,000  Level FlightAware ADS-B
Wed 08:04:18 PM 35.0235 -84.7773 168° South 388 447 39,000  Level FlightAware ADS-B
Wed 08:04:49 PM 34.9703 -84.7641 169° South 387 445 39,000  Level FlightAware ADS-B
Wed 08:05:21 PM 34.9134 -84.7498 168° South 388 447 39,000  Level FlightAware ADS-B
Wed 08:05:52 PM 34.8592 -84.7364 169° South 388 447 39,000  Level FlightAware ADS-B
Wed 08:06:37 PM 34.7880 -84.7190 169° South 380 437 39,000  Level FlightAware ADS-B
Wed 08:07:12 PM 34.7250 -84.7030 168° South 379 436 39,000  Level FlightAware ADS-B
Wed 08:08:02 PM 34.6400 -84.6820 169° South 378 435 39,000  Level FlightAware ADS-B
Wed 08:08:42 PM 34.5680 -84.6640 168° South 378 435 39,000  Level FlightAware ADS-B
Wed 08:09:22 PM 34.5000 -84.6480 169° South 378 435 39,000  Level FlightAware ADS-B
Wed 08:10:07 PM 34.4190 -84.6280 168° South 378 435 39,000  Level FlightAware ADS-B
Wed 08:10:26 PM 34.3785 -84.6177 168° South 386 444 39,000  Level FlightAware ADS-B
Wed 08:11:03 PM 34.3136 -84.6018 169° South 386 444 39,000  Level FlightAware ADS-B
Wed 08:12:12 PM 34.2020 -84.5740 168° South 377 434 39,000  Level FlightAware ADS-B
Wed 08:12:57 PM 34.1230 -84.5550 169° South 376 433 39,000  Level FlightAware ADS-B
Wed 08:13:37 PM 34.0480 -84.5370 169° South 377 434 39,000  Level FlightAware ADS-B
Wed 08:14:17 PM 33.9790 -84.5200 168° South 377 434 39,000  Level FlightAware ADS-B
Wed 08:14:57 PM 33.9090 -84.5030 169° South 378 435 39,000  Level FlightAware ADS-B
Wed 08:15:42 PM 33.8310 -84.4840 169° South 379 436 39,000  Level FlightAware ADS-B
Wed 08:16:06 PM 33.7841 -84.4727 169° South 388 447 39,000  Level FlightAware ADS-B
Wed 08:16:37 PM 33.7283 -84.4593 169° South 388 447 39,000  Level FlightAware ADS-B
Wed 08:17:08 PM 33.6747 -84.4463 169° South 389 448 39,000  Level FlightAware ADS-B
Wed 08:18:22 PM 33.5500 -84.4020 164° South 395 455 39,000  Level FlightAware ADS-B
Wed 08:18:57 PM 33.4940 -84.3790 161° South 395 455 39,000  Level FlightAware ADS-B
Wed 08:19:47 PM 33.4040 -84.3410 161° South 396 456 39,000  Level FlightAware ADS-B
Wed 08:20:27 PM 33.3340 -84.3120 161° South 390 449 39,000  Level FlightAware ADS-B
Wed 08:21:12 PM 33.2560 -84.2800 161° South 391 450 39,000  Level FlightAware ADS-B
Wed 08:21:52 PM 33.1870 -84.2510 161° South 392 451 39,000  Level FlightAware ADS-B
Wed 08:22:32 PM 33.1190 -84.2220 160° South 395 455 39,000  Level FlightAware ADS-B
Wed 08:23:17 PM 33.0380 -84.1890 161° South 396 456 39,000  Level FlightAware ADS-B
Wed 08:23:57 PM 32.9660 -84.1590 161° South 405 466 39,000  Level FlightAware ADS-B
Wed 08:24:42 PM 32.8880 -84.1270 161° South 406 467 39,000  Level FlightAware ADS-B
Wed 08:25:22 PM 32.8130 -84.0960 161° South 407 468 39,000  Level FlightAware ADS-B
Wed 08:26:02 PM 32.7420 -84.0670 161° South 407 468 39,000  Level FlightAware ADS-B
Wed 08:26:42 PM 32.6780 -84.0410 161° South 407 468 39,000  Level FlightAware ADS-B
Wed 08:27:27 PM 32.6080 -84.0100 160° South 407 468 39,000  Level FlightAware ADS-B
Wed 08:28:07 PM 32.5270 -83.9790 162° South 407 468 39,000  Level FlightAware ADS-B
Wed 08:28:42 PM 32.4680 -83.9550 161° South 407 468 39,000  Level FlightAware ADS-B
Wed 08:29:37 PM 32.3650 -83.9130 161° South 406 467 39,000  Level FlightAware ADS-B
Wed 08:30:32 PM 32.2630 -83.8710 161° South 406 467 39,000  Level FlightAware ADS-B
Wed 08:31:27 PM 32.1760 -83.8350 161° South 405 466 39,000  Level FlightAware ADS-B
Wed 08:32:07 PM 32.1170 -83.8090 160° South 405 466 39,000  Level FlightAware ADS-B
Wed 08:32:47 PM 32.0570 -83.7840 161° South 405 466 39,000  Level FlightAware ADS-B
Wed 08:33:27 PM 31.9970 -83.7580 160° South 405 466 39,000  Level FlightAware ADS-B
Wed 08:34:07 PM 31.9370 -83.7320 160° South 405 466 39,000  Level FlightAware ADS-B
Wed 08:34:57 PM 31.8620 -83.7000 160° South 405 466 39,000  Level FlightAware ADS-B
Wed 08:35:37 PM 31.8020 -83.6740 160° South 405 466 39,000  Level FlightAware ADS-B
Wed 08:36:17 PM 31.7420 -83.6490 160° South 405 466 39,000  Level FlightAware ADS-B
Wed 08:36:57 PM 31.6830 -83.6230 159° South 405 466 39,000  Level FlightAware ADS-B
Wed 08:37:37 PM 31.6230 -83.5980 160° South 405 466 39,000  Level FlightAware ADS-B
Wed 08:38:27 PM 31.5480 -83.5660 160° South 405 466 39,000  Level FlightAware ADS-B
Wed 08:39:07 PM 31.4880 -83.5400 160° South 405 466 39,000  Level FlightAware ADS-B
Wed 08:39:47 PM 31.4280 -83.5150 160° South 405 466 39,000  Level FlightAware ADS-B
Wed 08:40:27 PM 31.3680 -83.4890 160° South 405 466 39,000  Level FlightAware ADS-B
Wed 08:41:16 PM 31.0944 -83.4019 160° South 422 486 39,000  Level Jacksonville Center
Wed 08:42:16 PM 30.9819 -83.3603 162° South 422 486 39,000  Level Jacksonville Center
Wed 08:43:16 PM 30.8672 -83.3136 161° South 422 486 39,000  Level Jacksonville Center
Wed 08:44:16 PM 30.7586 -83.2672 160° South 422 486 39,000  Level Jacksonville Center
Wed 08:50:22 PM 30.0830 -82.9310 160° South 439 505 39,000  Level FlightAware ADS-B
Wed 08:50:57 PM 30.0230 -82.9000 156° South 439 505 39,000  Level FlightAware ADS-B
Wed 08:51:37 PM 29.9600 -82.8680 156° South 439 505 39,000  Level FlightAware ADS-B
Wed 08:52:27 PM 29.8810 -82.8280 156° South 439 505 39,000  Level FlightAware ADS-B
Wed 08:53:07 PM 29.8180 -82.7950 156° South 439 505 39,000  Level FlightAware ADS-B
Wed 08:53:47 PM 29.7550 -82.7630 156° South 439 505 39,000  Level FlightAware ADS-B
Wed 08:54:27 PM 29.6260 -82.7060 159° South 425 489 39,000  Level FlightAware ADS-B
Wed 08:55:12 PM 29.5450 -82.6660 157° South 434 499 39,000  Level FlightAware ADS-B
Wed 08:55:57 PM 29.4620 -82.6250 157° South 437 503 39,000  Level FlightAware ADS-B
Wed 08:56:37 PM 29.3850 -82.5880 157° South 440 506 39,000  Level FlightAware ADS-B
Wed 08:57:17 PM 29.3090 -82.5670 166° South 419 482 39,000  Level FlightAware ADS-B
Wed 08:58:17 PM 29.1950 -82.5610 177° South 418 481 39,000  Level FlightAware ADS-B
Wed 08:58:57 PM 29.1090 -82.5570 178° South 419 482 39,000  Level FlightAware ADS-B
Wed 08:59:42 PM 29.0230 -82.5530 178° South 419 482 39,000  Level FlightAware ADS-B
Wed 09:00:22 PM 28.9420 -82.5500 178° South 421 484 39,000  Level FlightAware ADS-B
Wed 09:01:02 PM 28.8640 -82.5470 178° South 432 497 39,000  Level FlightAware ADS-B
Wed 09:01:47 PM 28.7720 -82.5440 178° South 434 499 39,000  Level FlightAware ADS-B
Wed 09:02:27 PM 28.6910 -82.5400 178° South 438 504 39,000  Level FlightAware ADS-B
Wed 09:03:22 PM 28.5740 -82.5360 178° South 441 507 39,000  Level FlightAware ADS-B
Wed 09:04:07 PM 28.4820 -82.5330 178° South 443 510 39,000 -282 Level FlightAware ADS-B
Wed 09:04:47 PM 28.3980 -82.5300 178° South 445 512 38,600 -776 Descending FlightAware ADS-B
Wed 09:05:32 PM 28.3070 -82.5260 178° South 446 513 37,900 -988 Descending FlightAware ADS-B
Wed 09:06:12 PM 28.2250 -82.5230 178° South 444 511 37,200 -1,425 Descending FlightAware ADS-B
Wed 09:06:52 PM 28.1420 -82.5200 178° South 444 511 36,000 -1,553 Descending FlightAware ADS-B
Wed 09:07:37 PM 28.0480 -82.5160 178° South 446 513 35,000 -706 Descending FlightAware ADS-B
Wed 09:08:17 PM 27.9690 -82.5100 176° South 447 514 35,000  Level FlightAware ADS-B
Wed 09:08:57 PM 27.8840 -82.4840 165° South 453 521 35,000  Level FlightAware ADS-B
Wed 09:09:42 PM 27.7950 -82.4520 162° South 454 522 35,000 -212 Level FlightAware ADS-B
Wed 09:10:22 PM 27.7150 -82.4220 162° South 456 525 34,700 -706 Descending FlightAware ADS-B
Wed 09:11:07 PM 27.6240 -82.3890 162° South 456 525 34,000 -1,200 Descending FlightAware ADS-B
Wed 09:11:47 PM 27.5430 -82.3590 162° South 454 522 33,000 -1,650 Descending FlightAware ADS-B
Wed 09:12:27 PM 27.4650 -82.3310 162° South 458 527 31,800 -1,835 Descending FlightAware ADS-B
Wed 09:13:12 PM 27.3750 -82.2980 162° South 464 534 30,400 -1,906 Descending FlightAware ADS-B
Wed 09:13:52 PM 27.2920 -82.2670 162° South 465 535 29,100 -2,025 Descending FlightAware ADS-B
Wed 09:14:32 PM 27.2090 -82.2370 162° South 466 536 27,700 -1,840 Descending FlightAware ADS-B
Wed 09:15:07 PM 27.1390 -82.2120 162° South 459 528 26,800 -1,200 Descending FlightAware ADS-B
Wed 09:15:57 PM 27.0470 -82.1780 162° South 459 528 26,000 -1,011 Descending FlightAware ADS-B
Wed 09:16:42 PM 26.9480 -82.1430 163° South 459 528 25,200 -1,059 Descending FlightAware ADS-B
Wed 09:17:22 PM 26.8690 -82.1140 162° South 455 524 24,500 -847 Descending FlightAware ADS-B
Wed 09:18:07 PM 26.7830 -82.0780 160° South 447 514 24,000 -353 Descending FlightAware ADS-B
Wed 09:18:47 PM 26.7240 -82.0130 135° Southeast 450 518 24,000  Level FlightAware ADS-B
Wed 09:19:32 PM 26.6700 -81.9270 125° Southeast 433 498 24,000  Level FlightAware ADS-B
Wed 09:20:12 PM 26.6250 -81.8550 125° Southeast 429 494 24,000 -975 Level FlightAware ADS-B
Wed 09:20:52 PM 26.5760 -81.7770 125° Southeast 436 502 22,700 -2,047 Descending FlightAware ADS-B
Wed 09:21:37 PM 26.5260 -81.6960 125° Southeast 411 473 21,100 -2,047 Descending FlightAware ADS-B
Wed 09:22:17 PM 26.4830 -81.6280 125° Southeast 392 451 19,800 -1,835 Descending FlightAware ADS-B
Wed 09:23:02 PM 26.4370 -81.5550 125° Southeast 380 437 18,500 -1,835 Descending FlightAware ADS-B
Wed 09:23:42 PM 26.3970 -81.4910 125° Southeast 377 434 17,200 -1,950 Descending FlightAware ADS-B
Wed 09:24:22 PM 26.3560 -81.4260 125° Southeast 374 430 15,900 -1,976 Descending FlightAware ADS-B
Wed 09:25:07 PM 26.3110 -81.3540 125° Southeast 373 429 14,400 -1,976 Descending FlightAware ADS-B
Wed 09:25:47 PM 26.2750 -81.2880 121° Southeast 364 419 13,100 -1,624 Descending FlightAware ADS-B
Wed 09:26:32 PM 26.2460 -81.2100 113° Southeast 363 418 12,100 -1,059 Descending FlightAware ADS-B
Wed 09:27:12 PM 26.2240 -81.1440 110° East 333 383 11,600 -900 Descending FlightAware ADS-B
Wed 09:27:52 PM 26.2020 -81.0810 111° Southeast 320 368 10,900 -1,200 Descending FlightAware ADS-B
Wed 09:28:37 PM 26.1820 -81.0120 108° East 312 359 9,900 -1,371 Descending FlightAware ADS-B
Wed 09:29:02 PM 26.1740 -80.9720 103° East 309 356 9,300 -1,418 Descending FlightAware ADS-B
Wed 09:29:32 PM 26.1640 -80.9250 103° East 305 351 8,600 -1,400 Descending FlightAware ADS-B
Wed 09:30:02 PM 26.1540 -80.8800 104° East 303 349 7,900 -1,309 Descending FlightAware ADS-B
Wed 09:30:27 PM 26.1460 -80.8430 104° East 298 343 7,400 -1,418 Descending FlightAware ADS-B
Wed 09:30:57 PM 26.1370 -80.7980 103° East 297 342 6,600 -1,527 Descending FlightAware ADS-B
Wed 09:31:22 PM 26.1290 -80.7610 104° East 295 339 6,000 -1,309 Descending FlightAware ADS-B
Wed 09:31:52 PM 26.1200 -80.7160 103° East 291 335 5,400 -1,000 Descending FlightAware ADS-B
Wed 09:32:22 PM 26.1110 -80.6740 103° East 278 320 5,000 -545 Descending FlightAware ADS-B
Wed 09:32:47 PM 26.1040 -80.6400 103° East 255 293 4,900  Descending FlightAware ADS-B
Wed 09:33:17 PM 26.0960 -80.6030 104° East 249 287 5,000 109 Climbing FlightAware ADS-B
Wed 09:33:42 PM 26.0890 -80.5710 104° East 250 288 5,000  Level FlightAware ADS-B
Wed 09:34:12 PM 26.0810 -80.5340 104° East 236 272 5,000  Level FlightAware ADS-B
Wed 09:34:42 PM 26.0790 -80.4990 94° East 232 267 5,000 -109 Level FlightAware ADS-B
Wed 09:35:07 PM 26.0780 -80.4680 92° East 235 270 4,900 -436 Descending FlightAware ADS-B
Wed 09:35:37 PM 26.0780 -80.4330 90° East 215 247 4,600 -923 Descending FlightAware ADS-B
Wed 09:36:12 PM 26.0780 -80.3980 90° East 206 237 3,900 -1,036 Descending FlightAware ADS-B
Wed 09:37:27 PM 26.0780 -80.3250 90° East 179 206 2,700 -1,020 Descending FlightAware ADS-B
Wed 09:37:52 PM 26.0780 -80.3000 90° East 184 212 2,200 -1,015 Descending FlightAware ADS-B
Wed 09:38:32 PM 26.0770 -80.2660 92° East 172 198 1,600 -900 Descending FlightAware ADS-B
Wed 09:38:52 PM 26.0770 -80.2460 90° East 150 173 1,300 -720 Descending FlightAware ADS-B
Wed 09:39:22 PM 26.0770 -80.2240 90° East 142 163 1,000 -655 Descending FlightAware ADS-B
Wed 09:39:47 PM 26.0770 -80.2060 90° East 141 162 700 -750 Descending FlightAware ADS-B
Wed 09:40:02 PM 26.0770 -80.1960 90° East 142 163 500 -480 Descending FlightAware ADS-B
Wed 09:40:37 PM 26.0770 -80.1710 90° East 144 166 300 -343 Descending FlightAware ADS-B

Login

Don't have an account? Register now (free) for customized features, flight alerts, and more!